createdAt,value
2022-11-04T00:02:06.265Z,8.59
2022-11-04T00:04:32.870Z,8.45
2022-11-04T00:06:59.667Z,8.41
2022-11-04T00:09:28.755Z,8.42
2022-11-04T00:12:14.285Z,8.52
2022-11-04T00:14:41.064Z,8.53
2022-11-04T00:17:20.232Z,8.35
2022-11-04T00:20:07.507Z,8.42
2022-11-04T00:22:52.775Z,8.31
2022-11-04T00:25:38.235Z,8.11
2022-11-04T00:28:33.512Z,8.33
2022-11-04T00:31:20.373Z,8.32
2022-11-04T00:33:48.732Z,8.22
2022-11-04T00:36:15.925Z,8.33
2022-11-04T00:38:42.990Z,8.28
2022-11-04T00:41:28.757Z,8.20
2022-11-04T00:44:04.632Z,8.13
2022-11-04T00:46:33.567Z,7.99
2022-11-04T00:49:00.540Z,7.86
2022-11-04T00:51:27.106Z,7.84
2022-11-04T00:53:53.971Z,7.85
2022-11-04T00:56:20.719Z,7.67
2022-11-04T00:58:47.389Z,7.70
2022-11-04T01:01:17.817Z,7.63
2022-11-04T01:03:48.979Z,7.70
2022-11-04T01:06:16.303Z,7.68
2022-11-04T01:08:42.901Z,7.62
2022-11-04T01:11:09.872Z,7.70
2022-11-04T01:13:37.522Z,7.65
2022-11-04T01:16:07.161Z,7.65
2022-11-04T01:18:33.773Z,7.56
2022-11-04T01:21:01.975Z,7.66
2022-11-04T01:23:28.720Z,7.63
2022-11-04T01:25:55.439Z,7.65
2022-11-04T01:28:21.994Z,7.74
2022-11-04T01:30:48.605Z,7.76
2022-11-04T01:33:15.167Z,7.66
2022-11-04T01:35:41.679Z,7.76
2022-11-04T01:38:08.380Z,7.76
2022-11-04T01:40:40.095Z,7.62
2022-11-04T01:43:18.361Z,7.73
2022-11-04T01:45:49.049Z,7.55
2022-11-04T01:48:22.259Z,7.59
2022-11-04T01:50:52.132Z,7.53
2022-11-04T01:53:32.330Z,7.42
2022-11-04T01:56:02.587Z,7.48
2022-11-04T01:58:34.351Z,7.48
2022-11-04T02:01:01.849Z,7.38
2022-11-04T02:03:38.794Z,7.40
2022-11-04T02:06:06.780Z,7.38
2022-11-04T02:08:34.367Z,7.11
2022-11-04T02:11:03.486Z,7.19
2022-11-04T02:13:35.723Z,7.13
2022-11-04T02:16:13.792Z,7.13
2022-11-04T02:19:06.817Z,7.23
2022-11-04T02:21:54.606Z,7.25
2022-11-04T02:25:02.698Z,7.31
2022-11-04T02:27:38.377Z,7.28
2022-11-04T02:30:18.826Z,7.19
2022-11-04T02:32:59.834Z,7.14
2022-11-04T02:35:57.673Z,6.93
2022-11-04T02:38:53.679Z,6.79
2022-11-04T02:41:39.994Z,6.74
2022-11-04T02:44:19.829Z,6.83
2022-11-04T02:46:53.033Z,6.88
2022-11-04T02:49:34.777Z,6.91
2022-11-04T02:52:06.871Z,6.97
2022-11-04T02:54:43.113Z,6.95
2022-11-04T02:57:14.381Z,6.86
2022-11-04T02:59:59.999Z,7.00
2022-11-04T03:02:33.562Z,6.94
2022-11-04T03:05:03.608Z,6.79
2022-11-04T03:07:34.755Z,6.66
2022-11-04T03:10:07.555Z,6.71
2022-11-04T03:12:40.794Z,6.75
2022-11-04T03:15:13.226Z,6.84
2022-11-04T03:17:50.578Z,6.82
2022-11-04T03:20:22.233Z,6.67
2022-11-04T03:22:48.898Z,6.66
2022-11-04T03:25:16.087Z,6.21
2022-11-04T03:27:54.446Z,6.32
2022-11-04T03:30:23.466Z,6.47
2022-11-04T03:33:02.018Z,6.46
2022-11-04T03:35:29.122Z,6.28
2022-11-04T03:37:55.843Z,6.32
2022-11-04T03:40:22.914Z,6.45
2022-11-04T03:43:00.852Z,6.40
2022-11-04T03:45:27.801Z,6.42
2022-11-04T03:47:56.655Z,6.45
2022-11-04T03:50:32.242Z,6.41
2022-11-04T03:52:59.531Z,6.25
2022-11-04T03:55:39.559Z,6.36
2022-11-04T03:58:44.991Z,6.48
2022-11-04T04:01:26.070Z,6.41
2022-11-04T04:04:27.071Z,6.48
2022-11-04T04:07:01.615Z,6.55
2022-11-04T04:09:42.171Z,6.52
2022-11-04T04:12:21.977Z,6.56
2022-11-04T04:14:59.016Z,6.50
2022-11-04T04:17:39.780Z,6.21
2022-11-04T04:20:12.726Z,6.23
2022-11-04T04:22:47.364Z,6.09
2022-11-04T04:25:34.779Z,6.09
2022-11-04T04:28:03.358Z,6.14
2022-11-04T04:30:30.799Z,6.09
2022-11-04T04:33:04.814Z,6.13
2022-11-04T04:35:43.284Z,6.14
2022-11-04T04:38:41.266Z,6.13
2022-11-04T04:41:37.772Z,6.04
2022-11-04T04:44:32.105Z,5.93
2022-11-04T04:47:02.396Z,5.91
2022-11-04T04:49:35.409Z,5.86
2022-11-04T04:52:08.045Z,5.84
2022-11-04T04:54:34.616Z,5.80
2022-11-04T04:57:01.168Z,5.81
2022-11-04T04:59:27.703Z,5.72
2022-11-04T05:01:54.392Z,5.80
2022-11-04T05:04:21.124Z,5.65
2022-11-04T05:06:47.772Z,5.74
2022-11-04T05:09:14.323Z,5.82
2022-11-04T05:11:40.892Z,5.64
2022-11-04T05:14:07.430Z,5.66
2022-11-04T05:16:39.492Z,5.67
2022-11-04T05:19:07.336Z,5.51
2022-11-04T05:21:33.900Z,5.60
2022-11-04T05:24:00.467Z,5.68
2022-11-04T05:26:26.985Z,5.41
2022-11-04T05:28:53.552Z,5.65
2022-11-04T05:31:20.166Z,5.84
2022-11-04T05:33:46.671Z,5.86
2022-11-04T05:36:15.219Z,5.93
2022-11-04T05:38:42.770Z,5.92
2022-11-04T05:41:11.683Z,5.94
2022-11-04T05:43:38.364Z,6.19
2022-11-04T05:46:05.020Z,6.28
2022-11-04T05:48:35.096Z,6.32
2022-11-04T05:51:04.439Z,6.48
2022-11-04T05:53:30.963Z,6.56
2022-11-04T05:55:57.477Z,6.83
2022-11-04T05:58:23.996Z,6.90
2022-11-04T06:00:50.521Z,6.92
2022-11-04T06:03:17.296Z,7.17
2022-11-04T06:05:43.859Z,7.27
2022-11-04T06:08:10.849Z,7.40
2022-11-04T06:10:37.998Z,7.63
2022-11-04T06:13:04.524Z,7.98
2022-11-04T06:15:31.035Z,8.06
2022-11-04T06:17:57.672Z,8.34
2022-11-04T06:20:24.208Z,8.73
2022-11-04T06:22:50.757Z,9.04
2022-11-04T06:25:17.296Z,9.43
2022-11-04T06:27:43.810Z,9.58
2022-11-04T06:30:11.236Z,9.89
2022-11-04T06:32:37.667Z,10.08
2022-11-04T06:35:04.419Z,9.99
2022-11-04T06:37:30.962Z,9.91
2022-11-04T06:39:57.473Z,10.12
2022-11-04T06:42:25.923Z,10.14
2022-11-04T06:44:52.826Z,10.30
2022-11-04T06:47:24.425Z,10.39
2022-11-04T06:49:51.422Z,10.61
2022-11-04T06:52:17.948Z,10.56
2022-11-04T06:54:44.459Z,10.78
2022-11-04T06:57:12.265Z,11.13
2022-11-04T06:59:38.801Z,11.35
2022-11-04T07:02:05.544Z,11.38
2022-11-04T07:04:32.135Z,11.48
2022-11-04T07:06:58.682Z,11.53
2022-11-04T07:09:25.227Z,11.89
2022-11-04T07:11:51.823Z,12.08
2022-11-04T07:14:18.357Z,12.32
2022-11-04T07:16:44.917Z,12.57
2022-11-04T07:19:11.504Z,12.65
2022-11-04T07:21:38.066Z,12.86
2022-11-04T07:24:04.917Z,13.09
2022-11-04T07:26:31.471Z,13.40
2022-11-04T07:29:00.079Z,13.79
2022-11-04T07:31:27.396Z,14.13
2022-11-04T07:33:54.175Z,14.31
2022-11-04T07:36:20.732Z,14.42
2022-11-04T07:38:48.492Z,14.75
2022-11-04T07:41:18.041Z,14.89
2022-11-04T07:43:49.821Z,15.18
2022-11-04T07:46:16.892Z,15.55
2022-11-04T07:48:43.634Z,16.00
2022-11-04T07:51:17.307Z,16.36
2022-11-04T07:53:44.094Z,16.19
2022-11-04T07:56:12.330Z,16.42
2022-11-04T07:58:39.532Z,17.08
2022-11-04T08:01:10.160Z,17.19
2022-11-04T08:03:37.020Z,16.51
2022-11-04T08:06:06.056Z,17.26
2022-11-04T08:08:33.479Z,17.19
2022-11-04T08:11:05.003Z,17.53
2022-11-04T08:13:33.696Z,18.51
2022-11-04T08:16:05.660Z,19.76
2022-11-04T08:18:34.160Z,20.72
2022-11-04T08:21:02.473Z,20.45
2022-11-04T08:23:29.134Z,20.84
2022-11-04T08:25:56.544Z,21.01
2022-11-04T08:28:24.255Z,21.40
2022-11-04T08:31:02.900Z,21.01
2022-11-04T08:33:31.908Z,21.35
2022-11-04T08:36:26.517Z,22.47
2022-11-04T08:38:53.985Z,23.25
2022-11-04T08:41:24.283Z,23.12
2022-11-04T08:43:50.845Z,23.70
2022-11-04T08:46:17.860Z,24.06
2022-11-04T08:48:45.261Z,24.44
2022-11-04T08:51:20.873Z,24.38
2022-11-04T08:53:47.542Z,23.74
2022-11-04T08:56:16.416Z,24.31
2022-11-04T08:58:42.998Z,24.32
2022-11-04T09:01:10.922Z,25.17
2022-11-04T09:03:39.313Z,25.49
2022-11-04T09:06:08.022Z,25.81
2022-11-04T09:08:34.593Z,24.44
2022-11-04T09:11:01.540Z,23.49
2022-11-04T09:13:28.079Z,22.72
2022-11-04T09:15:55.399Z,22.32
2022-11-04T09:18:21.787Z,21.74
2022-11-04T09:20:48.335Z,21.23
2022-11-04T09:23:15.128Z,20.72
2022-11-04T09:25:41.714Z,20.57
2022-11-04T09:28:08.239Z,20.56
2022-11-04T09:30:34.867Z,20.73
2022-11-04T09:33:01.472Z,20.48
2022-11-04T09:35:28.102Z,20.09
2022-11-04T09:37:55.202Z,20.07
2022-11-04T09:40:24.705Z,20.17
2022-11-04T09:43:00.272Z,20.59
2022-11-04T09:45:29.516Z,20.55
2022-11-04T09:48:03.203Z,20.63
2022-11-04T09:50:36.095Z,20.61
2022-11-04T09:53:12.806Z,20.67
2022-11-04T09:55:46.813Z,20.66
2022-11-04T09:58:16.798Z,20.79
2022-11-04T10:00:51.136Z,20.94
2022-11-04T10:03:40.578Z,21.03
2022-11-04T10:06:38.255Z,21.02
2022-11-04T10:09:30.047Z,21.11
2022-11-04T10:12:03.541Z,21.36
2022-11-04T10:14:38.692Z,21.60
2022-11-04T10:17:30.638Z,21.68
2022-11-04T10:20:13.306Z,21.80
2022-11-04T10:23:15.151Z,22.02
2022-11-04T10:25:57.328Z,22.09
2022-11-04T10:28:32.176Z,22.02
2022-11-04T10:31:00.631Z,22.16
2022-11-04T10:33:35.492Z,22.23
2022-11-04T10:36:06.359Z,22.40
2022-11-04T10:38:35.580Z,22.45
2022-11-04T10:41:07.080Z,22.67
2022-11-04T10:43:38.884Z,22.61
2022-11-04T10:46:20.204Z,22.63
2022-11-04T10:48:57.966Z,22.73
2022-11-04T10:51:24.782Z,22.66
2022-11-04T10:53:57.256Z,22.70
2022-11-04T10:56:42.215Z,22.86
2022-11-04T10:59:30.674Z,22.95
2022-11-04T11:02:02.567Z,23.02
2022-11-04T11:04:37.749Z,23.13
2022-11-04T11:07:08.316Z,23.13
2022-11-04T11:09:54.743Z,22.95
2022-11-04T11:12:51.677Z,22.97
2022-11-04T11:15:26.398Z,22.92
2022-11-04T11:18:00.592Z,22.83
2022-11-04T11:20:27.373Z,22.70
2022-11-04T11:22:55.358Z,22.53
2022-11-04T11:25:33.968Z,22.68
2022-11-04T11:28:01.889Z,22.59
2022-11-04T11:30:34.717Z,22.73
2022-11-04T11:33:15.246Z,22.63
2022-11-04T11:35:56.426Z,22.57
2022-11-04T11:38:27.596Z,22.35
2022-11-04T11:41:24.293Z,22.30
2022-11-04T11:43:53.776Z,22.25
2022-11-04T11:46:29.566Z,22.23
2022-11-04T11:49:01.363Z,22.26
2022-11-04T11:51:37.102Z,22.43
2022-11-04T11:54:26.176Z,22.67
2022-11-04T11:57:13.329Z,22.90
2022-11-04T12:02:55.385Z,23.00
2022-11-04T12:11:31.367Z,23.30
2022-11-04T12:14:03.780Z,23.39
2022-11-04T12:16:38.705Z,23.39
2022-11-04T12:19:17.354Z,23.44
2022-11-04T12:22:01.249Z,23.50
2022-11-04T12:24:55.293Z,23.48
2022-11-04T12:27:30.934Z,23.36
2022-11-04T12:30:00.385Z,23.39
2022-11-04T12:32:26.975Z,23.24
2022-11-04T12:35:20.313Z,23.13
2022-11-04T12:38:04.003Z,22.86
2022-11-04T12:41:05.055Z,22.85
2022-11-04T12:43:41.156Z,22.71
2022-11-04T12:46:17.325Z,22.57
2022-11-04T12:48:49.862Z,22.72
2022-11-04T12:51:34.651Z,22.59
2022-11-04T12:54:26.300Z,22.41
2022-11-04T12:57:12.366Z,22.25
2022-11-04T13:00:03.889Z,22.14
2022-11-04T13:02:51.047Z,21.98
2022-11-04T13:05:42.827Z,22.07
2022-11-04T13:08:29.233Z,22.28
2022-11-04T13:11:22.825Z,22.39
2022-11-04T13:13:52.828Z,22.46
2022-11-04T13:16:21.939Z,22.51
2022-11-04T13:18:50.561Z,22.35
2022-11-04T13:21:23.478Z,22.27
2022-11-04T13:24:04.321Z,22.16
2022-11-04T13:26:32.416Z,22.06
2022-11-04T13:29:14.766Z,21.98
2022-11-04T13:32:00.208Z,21.85
2022-11-04T13:34:44.826Z,21.75
2022-11-04T13:37:25.114Z,21.76
2022-11-04T13:40:01.933Z,21.77
2022-11-04T13:43:16.060Z,21.74
2022-11-04T13:45:55.279Z,21.68
2022-11-04T13:48:26.654Z,21.64
2022-11-04T13:51:12.098Z,21.57
2022-11-04T13:53:48.603Z,21.49
2022-11-04T13:56:37.152Z,21.32
2022-11-04T13:59:29.223Z,21.16
2022-11-04T14:02:11.398Z,21.08
2022-11-04T14:04:40.220Z,20.92
2022-11-04T14:07:10.689Z,20.95
2022-11-04T14:09:43.352Z,20.91
2022-11-04T14:12:18.976Z,20.83
2022-11-04T14:15:11.011Z,20.76
2022-11-04T14:17:37.515Z,20.79
2022-11-04T14:20:32.976Z,20.88
2022-11-04T14:23:02.392Z,20.78
2022-11-04T14:25:32.078Z,20.66
2022-11-04T14:28:10.717Z,20.65
2022-11-04T14:30:52.584Z,20.64
2022-11-04T14:33:27.971Z,20.59
2022-11-04T14:35:56.519Z,20.51
2022-11-04T14:38:27.638Z,20.52
2022-11-04T14:41:32.567Z,20.40
2022-11-04T14:44:03.301Z,20.36
2022-11-04T14:46:34.486Z,20.35
2022-11-04T14:49:02.293Z,20.25
2022-11-04T14:51:40.632Z,20.29
2022-11-04T14:54:20.801Z,20.23
2022-11-04T14:56:47.382Z,20.25
2022-11-04T14:59:23.352Z,20.19
2022-11-04T15:01:52.384Z,20.18
2022-11-04T15:04:28.139Z,20.05
2022-11-04T15:06:55.842Z,20.04
2022-11-04T15:09:28.497Z,20.05
2022-11-04T15:12:36.696Z,19.91
2022-11-04T15:15:33.353Z,19.88
2022-11-04T15:18:08.093Z,19.73
2022-11-04T15:20:41.066Z,19.77
2022-11-04T15:23:14.702Z,19.67
2022-11-04T15:25:48.189Z,19.68
2022-11-04T15:28:24.367Z,19.56
2022-11-04T15:31:11.078Z,19.50
2022-11-04T15:33:44.580Z,19.40
2022-11-04T15:36:21.788Z,19.25
2022-11-04T15:38:59.266Z,19.32
2022-11-04T15:41:49.460Z,19.24
2022-11-04T15:44:34.253Z,19.18
2022-11-04T15:47:23.230Z,19.11
2022-11-04T15:49:53.030Z,19.12
2022-11-04T15:52:23.106Z,18.99
2022-11-04T15:54:55.417Z,18.96
2022-11-04T15:57:25.546Z,19.02
2022-11-04T15:59:52.080Z,19.01
2022-11-04T16:02:33.822Z,18.95
2022-11-04T16:05:31.332Z,18.83
2022-11-04T16:08:20.316Z,18.78
2022-11-04T16:10:47.524Z,18.78
2022-11-04T16:13:27.911Z,18.77
2022-11-04T16:16:01.776Z,18.68
2022-11-04T16:18:36.083Z,18.65
2022-11-04T16:21:33.700Z,18.58
2022-11-04T16:24:22.110Z,18.55
2022-11-04T16:26:49.899Z,18.55
2022-11-04T16:29:21.450Z,18.55
2022-11-04T16:32:07.008Z,18.46
2022-11-04T16:34:33.959Z,18.36
2022-11-04T16:37:00.543Z,18.43
2022-11-04T16:39:28.475Z,18.48
2022-11-04T16:41:55.144Z,18.34
2022-11-04T16:44:23.664Z,18.36
2022-11-04T16:46:50.544Z,18.30
2022-11-04T16:49:19.890Z,18.32
2022-11-04T16:51:49.471Z,18.22
2022-11-04T16:54:15.985Z,18.21
2022-11-04T16:56:42.647Z,18.21
2022-11-04T16:59:11.646Z,18.06
2022-11-04T17:01:39.970Z,18.07
2022-11-04T17:04:07.814Z,17.95
2022-11-04T17:06:35.040Z,17.68
2022-11-04T17:09:01.903Z,17.78
2022-11-04T17:11:59.468Z,17.74
2022-11-04T17:14:26.067Z,17.71
2022-11-04T17:16:52.626Z,17.65
2022-11-04T17:19:19.239Z,17.71
2022-11-04T17:21:45.991Z,17.51
2022-11-04T17:24:13.008Z,17.65
2022-11-04T17:26:39.661Z,17.66
2022-11-04T17:29:06.362Z,17.62
2022-11-04T17:31:32.988Z,17.45
2022-11-04T17:34:00.306Z,17.47
2022-11-04T17:36:26.764Z,17.57
2022-11-04T17:38:53.287Z,17.54
2022-11-04T17:41:38.249Z,17.54
2022-11-04T17:44:05.131Z,17.45
2022-11-04T17:46:34.289Z,17.36
2022-11-04T17:49:03.782Z,17.38
2022-11-04T17:51:31.131Z,17.16
2022-11-04T17:53:58.011Z,16.90
2022-11-04T17:56:25.271Z,16.82
2022-11-04T17:58:53.401Z,16.73
2022-11-04T18:01:22.538Z,16.70
2022-11-04T18:03:51.941Z,16.65
2022-11-04T18:06:18.572Z,16.46
2022-11-04T18:08:45.132Z,16.25
2022-11-04T18:11:32.238Z,16.43
2022-11-04T18:14:00.222Z,16.35
2022-11-04T18:16:27.134Z,16.28
2022-11-04T18:18:53.717Z,16.13
2022-11-04T18:21:20.281Z,16.04
2022-11-04T18:23:46.861Z,15.91
2022-11-04T18:26:13.477Z,16.15
2022-11-04T18:28:40.476Z,15.97
2022-11-04T18:31:09.544Z,16.28
2022-11-04T18:33:36.972Z,16.22
2022-11-04T18:36:06.736Z,16.37
2022-11-04T18:38:33.422Z,16.36
2022-11-04T18:41:00.005Z,16.37
2022-11-04T18:43:26.797Z,16.47
2022-11-04T18:45:54.583Z,16.47
2022-11-04T18:48:21.866Z,16.40
2022-11-04T18:50:48.847Z,16.44
2022-11-04T18:53:16.305Z,16.31
2022-11-04T18:55:42.848Z,16.46
2022-11-04T18:58:09.713Z,16.46
2022-11-04T19:00:40.076Z,16.58
2022-11-04T19:03:06.674Z,16.56
2022-11-04T19:05:33.388Z,16.78
2022-11-04T19:07:59.950Z,16.60
2022-11-04T19:10:26.559Z,16.55
2022-11-04T19:13:11.540Z,16.58
2022-11-04T19:15:38.160Z,16.68
2022-11-04T19:18:04.729Z,16.58
2022-11-04T19:20:33.378Z,16.61
2022-11-04T19:22:59.945Z,16.49
2022-11-04T19:25:26.536Z,16.59
2022-11-04T19:28:18.678Z,16.60
2022-11-04T19:30:39.659Z,16.55
2022-11-04T19:33:06.270Z,16.57
2022-11-04T19:35:32.969Z,16.64
2022-11-04T19:38:01.408Z,16.71
2022-11-04T19:40:28.936Z,16.62
2022-11-04T19:43:10.627Z,16.41
2022-11-04T19:45:42.398Z,16.43
2022-11-04T19:48:09.702Z,16.47
2022-11-04T19:50:41.981Z,16.37
2022-11-04T19:53:09.014Z,16.27
2022-11-04T19:55:36.356Z,16.10
2022-11-04T19:58:02.993Z,16.22
2022-11-04T20:00:31.221Z,16.10
2022-11-04T20:02:58.019Z,16.04
2022-11-04T20:05:24.882Z,15.89
2022-11-04T20:07:54.381Z,16.02
2022-11-04T20:10:22.980Z,15.98
2022-11-04T20:13:08.900Z,16.03
2022-11-04T20:15:35.917Z,15.98
2022-11-04T20:18:02.616Z,15.90
2022-11-04T20:20:29.170Z,15.85
2022-11-04T20:22:55.740Z,15.81
2022-11-04T20:25:22.489Z,15.90
2022-11-04T20:27:49.120Z,15.87
2022-11-04T20:30:15.875Z,15.78
2022-11-04T20:32:42.430Z,15.78
2022-11-04T20:35:12.562Z,15.70
2022-11-04T20:37:39.240Z,15.35
2022-11-04T20:40:07.447Z,15.38
2022-11-04T20:42:34.467Z,15.15
2022-11-04T20:45:00.988Z,15.23
2022-11-04T20:47:30.071Z,15.16
2022-11-04T20:49:56.664Z,15.06
2022-11-04T20:52:23.296Z,14.98
2022-11-04T20:54:49.918Z,14.89
2022-11-04T20:57:16.918Z,14.95
2022-11-04T20:59:43.534Z,14.62
2022-11-04T21:02:11.322Z,14.62
2022-11-04T21:04:38.004Z,14.59
2022-11-04T21:07:04.902Z,14.40
2022-11-04T21:09:31.630Z,14.54
2022-11-04T21:11:58.510Z,14.57
2022-11-04T21:14:25.040Z,14.39
2022-11-04T21:16:51.621Z,14.35
2022-11-04T21:19:20.192Z,14.34
2022-11-04T21:21:47.151Z,14.32
2022-11-04T21:24:17.239Z,14.39
2022-11-04T21:26:45.687Z,14.28
2022-11-04T21:29:15.226Z,14.52
2022-11-04T21:31:43.520Z,14.53
2022-11-04T21:34:10.612Z,14.51
2022-11-04T21:36:37.442Z,14.40
2022-11-04T21:39:04.403Z,14.60
2022-11-04T21:41:37.346Z,14.80
2022-11-04T21:44:08.328Z,14.90
2022-11-04T21:46:35.802Z,14.87
2022-11-04T21:49:02.336Z,15.04
2022-11-04T21:51:31.218Z,14.92
2022-11-04T21:53:59.317Z,14.91
2022-11-04T21:56:33.014Z,14.99
2022-11-04T21:58:59.862Z,15.06
2022-11-04T22:01:29.100Z,15.07
2022-11-04T22:04:01.105Z,15.08
2022-11-04T22:06:34.174Z,15.12
2022-11-04T22:09:04.056Z,15.04
2022-11-04T22:11:31.980Z,15.11
2022-11-04T22:14:01.041Z,15.12
2022-11-04T22:16:30.239Z,15.17
2022-11-04T22:19:00.073Z,15.15
2022-11-04T22:21:28.693Z,15.31
2022-11-04T22:23:55.943Z,15.31
2022-11-04T22:26:25.297Z,15.27
2022-11-04T22:28:53.249Z,15.13
2022-11-04T22:31:25.046Z,15.08
2022-11-04T22:33:52.190Z,14.90
2022-11-04T22:36:19.287Z,14.92
2022-11-04T22:38:46.459Z,15.12
2022-11-04T22:41:16.070Z,15.19
2022-11-04T22:43:42.792Z,15.19
2022-11-04T22:46:19.496Z,15.25
2022-11-04T22:48:46.129Z,15.56
2022-11-04T22:51:12.989Z,15.61
2022-11-04T22:53:40.190Z,15.55
2022-11-04T22:56:09.684Z,15.67
2022-11-04T22:58:36.531Z,15.68
2022-11-04T23:01:07.485Z,15.77
2022-11-04T23:03:34.510Z,15.69
2022-11-04T23:06:03.400Z,15.76
2022-11-04T23:08:31.465Z,15.80
2022-11-04T23:11:20.080Z,15.80
2022-11-04T23:14:14.409Z,15.80
2022-11-04T23:17:05.812Z,15.81
2022-11-04T23:19:32.610Z,15.75
2022-11-04T23:22:17.380Z,15.77
2022-11-04T23:25:02.815Z,15.79
2022-11-04T23:27:48.307Z,15.77
2022-11-04T23:30:21.158Z,15.86
2022-11-04T23:33:09.601Z,15.82
2022-11-04T23:36:06.265Z,15.88
2022-11-04T23:38:33.752Z,15.89
2022-11-04T23:41:20.021Z,15.89
2022-11-04T23:43:46.904Z,15.74
2022-11-04T23:46:35.423Z,15.85
2022-11-04T23:49:23.543Z,15.73
2022-11-04T23:52:08.548Z,15.75
2022-11-04T23:54:53.345Z,15.75
2022-11-04T23:57:38.485Z,15.76
